createdAt,value
2018-12-31T00:00:22.000Z,24.47
2018-12-31T00:10:22.000Z,24.4
2018-12-31T00:20:21.000Z,24.41
2018-12-31T00:30:21.000Z,24.36
2018-12-31T00:40:21.000Z,24.38
2018-12-31T00:50:22.000Z,24.29
2018-12-31T01:10:22.000Z,24.25
2018-12-31T01:20:22.000Z,24.17
2018-12-31T01:30:22.000Z,24.17
2018-12-31T01:40:22.000Z,24.22
2018-12-31T01:50:22.000Z,24.2
2018-12-31T02:00:22.000Z,24.05
2018-12-31T02:10:22.000Z,23.98
2018-12-31T02:20:22.000Z,24.03
2018-12-31T02:30:22.000Z,23.98
2018-12-31T02:40:22.000Z,23.98
2018-12-31T02:50:22.000Z,23.96
2018-12-31T03:00:22.000Z,23.92
2018-12-31T03:10:22.000Z,23.89
2018-12-31T03:20:22.000Z,23.88
2018-12-31T03:30:22.000Z,23.83
2018-12-31T03:40:22.000Z,23.76
2018-12-31T03:50:23.000Z,23.78
2018-12-31T04:00:23.000Z,23.7
2018-12-31T04:10:22.000Z,23.74
2018-12-31T04:20:22.000Z,23.72
2018-12-31T04:30:22.000Z,23.61
2018-12-31T04:40:22.000Z,23.57
2018-12-31T04:50:22.000Z,23.64
2018-12-31T05:00:22.000Z,23.59
2018-12-31T05:10:22.000Z,23.66
2018-12-31T05:20:22.000Z,23.67
2018-12-31T05:30:22.000Z,23.69
2018-12-31T05:40:22.000Z,23.62
2018-12-31T05:50:22.000Z,23.82
2018-12-31T06:00:22.000Z,23.82
2018-12-31T06:10:22.000Z,23.79
2018-12-31T06:20:22.000Z,23.99
2018-12-31T06:30:22.000Z,23.98
2018-12-31T06:40:22.000Z,24.08
2018-12-31T06:50:22.000Z,24.17
2018-12-31T07:00:22.000Z,24.15
2018-12-31T07:10:22.000Z,24.23
2018-12-31T07:20:22.000Z,24.25
2018-12-31T07:30:23.000Z,24.28
2018-12-31T07:40:22.000Z,24.31
2018-12-31T07:50:22.000Z,24.38
2018-12-31T08:00:22.000Z,24.4
2018-12-31T08:10:24.000Z,24.42
2018-12-31T08:20:22.000Z,24.5
2018-12-31T08:30:22.000Z,24.56
2018-12-31T08:40:22.000Z,24.58
2018-12-31T08:50:22.000Z,24.63
2018-12-31T09:00:23.000Z,24.3
2018-12-31T09:10:23.000Z,24.25
2018-12-31T09:20:23.000Z,24.21
2018-12-31T09:30:23.000Z,24.23
2018-12-31T09:40:23.000Z,24.22
2018-12-31T09:50:23.000Z,24.26
2018-12-31T10:00:23.000Z,24.27
2018-12-31T10:10:23.000Z,24.26
2018-12-31T10:20:23.000Z,24.26
2018-12-31T10:30:23.000Z,24.25
2018-12-31T10:40:23.000Z,24.26
2018-12-31T10:50:23.000Z,24.28
2018-12-31T11:00:23.000Z,24.3
2018-12-31T11:10:23.000Z,24.3
2018-12-31T11:20:23.000Z,24.35
2018-12-31T11:30:23.000Z,24.34
2018-12-31T11:40:23.000Z,24.39
2018-12-31T11:50:23.000Z,24.37
2018-12-31T12:00:23.000Z,24.42
2018-12-31T12:10:23.000Z,24.49
2018-12-31T12:20:23.000Z,24.5
2018-12-31T12:30:23.000Z,24.5
2018-12-31T12:40:23.000Z,24.54
2018-12-31T12:50:23.000Z,24.54
2018-12-31T13:00:23.000Z,24.59
2018-12-31T13:10:23.000Z,24.62
2018-12-31T13:20:24.000Z,24.62
2018-12-31T13:30:23.000Z,24.72
2018-12-31T13:40:23.000Z,24.7
2018-12-31T13:50:23.000Z,24.73
2018-12-31T14:00:23.000Z,24.74
2018-12-31T14:10:23.000Z,24.84
2018-12-31T14:20:26.000Z,24.79
2018-12-31T14:30:23.000Z,24.81
2018-12-31T14:40:23.000Z,24.89
2018-12-31T14:50:23.000Z,24.8
2018-12-31T15:00:23.000Z,24.82
2018-12-31T15:10:23.000Z,24.88
2018-12-31T15:20:23.000Z,24.92
2018-12-31T15:30:23.000Z,23.66
2018-12-31T15:50:23.000Z,24.63
2018-12-31T16:00:23.000Z,24.72
2018-12-31T16:10:23.000Z,24.66
2018-12-31T16:20:25.000Z,24.66
2018-12-31T16:30:23.000Z,24.85
2018-12-31T16:40:23.000Z,24.79
2018-12-31T16:50:23.000Z,24.83
2018-12-31T17:00:23.000Z,24.96
2018-12-31T17:10:23.000Z,24.87
2018-12-31T17:20:24.000Z,24.89
2018-12-31T17:30:24.000Z,24.96
2018-12-31T17:40:24.000Z,24.93
2018-12-31T17:50:24.000Z,24.92
2018-12-31T18:00:24.000Z,24.92
2018-12-31T18:10:25.000Z,24.87
2018-12-31T18:20:24.000Z,24.88
2018-12-31T18:30:24.000Z,24.79
2018-12-31T18:40:24.000Z,24.76
2018-12-31T18:50:24.000Z,24.76
2018-12-31T19:00:24.000Z,24.77
2018-12-31T19:10:24.000Z,24.74
2018-12-31T19:20:24.000Z,24.74
2018-12-31T19:30:24.000Z,24.71
2018-12-31T19:40:24.000Z,24.73
2018-12-31T19:50:24.000Z,24.63
2018-12-31T20:00:24.000Z,24.65
2018-12-31T20:10:24.000Z,24.59
2018-12-31T20:20:24.000Z,24.61
2018-12-31T20:30:24.000Z,24.53
2018-12-31T20:40:25.000Z,24.53
2018-12-31T20:50:24.000Z,24.5
2018-12-31T21:00:24.000Z,24.54
2018-12-31T21:10:24.000Z,24.57
2018-12-31T21:20:24.000Z,24.65
2018-12-31T21:40:24.000Z,24.69
2018-12-31T21:50:24.000Z,24.71
2018-12-31T22:00:24.000Z,24.71
2018-12-31T22:10:24.000Z,24.73
2018-12-31T22:20:24.000Z,24.79
2018-12-31T22:30:24.000Z,24.76
2018-12-31T22:40:24.000Z,24.74
2018-12-31T22:50:24.000Z,24.69
2018-12-31T23:00:24.000Z,24.64
2018-12-31T23:10:24.000Z,24.53
2018-12-31T23:20:24.000Z,24.53
2018-12-31T23:30:24.000Z,24.49
2018-12-31T23:40:24.000Z,24.48
2018-12-31T23:50:24.000Z,24.51
